AirNav   SIMCOM
 
 1537 users online  

MY93 North Air Seaplane Base
Perham, Minnesota, USA


FAA INFORMATION EFFECTIVE 20 JULY 2017

Location

FAA Identifier: MY93
Lat/Long: 46-36-39.0000N / 095-42-16.0000W
46-36.650000N / 095-42.266667W
46.6108333 / -95.7044444
(estimated)
Elevation: 1370 ft. / 418 m (estimated)
From city: 4 miles E of PERHAM, MN
Time zone: UTC -5 (UTC -6 during Standard Time)
Zip code: 56587

Seaplane Base Operations

Seaplane Base use: Private use. Permission required prior to landing
Activation date: 04/2007
Control tower: no
ARTCC: MINNEAPOLIS CENTER
FSS: PRINCETON FLIGHT SERVICE STATION
Attendance: UNATNDD
Wind indicator: yes
Segmented circle: no

Seaplane Base Communications

WX AWOS-3 at DTL (15 nm NW): 111.2 (218-847-8626)

Nearby radio navigation aids

VOR radial/distance  VOR name  Freq  Var
DTLr145/14.9DETROIT LAKES VOR/DME111.2005E
FFMr039/26.9FERGUS FALLS VOR/DME110.4005E
PKDr232/31.2PARK RAPIDS VOR/DME110.6004E

 
NDB name  Hdg/Dist  Freq  Var  ID
STAPLES289/39.625701ESAZ ... .- --..

Seaplane Base Services

Runway Information

Runway 9W/27W

Dimensions: 5000 x 300 ft. / 1524 x 91 m
Surface: water
RUNWAY 9W  RUNWAY 27W
Traffic pattern: leftleft

Seaplane Base Ownership and Management from official FAA records

Ownership: Privately-owned
Owner: NORTH AIR INC
44961 EAST LITTLE MCDONALD RD
PERHAM, MN 56573
Phone 218-639-8101
Manager: DALE FEHRENBACH
44961 EAST LITTLE MCDONALD RD
PERHAM, MN 56573
Phone 651-402-3156

Seaplane Base Operational Statistics

Aircraft based on the field: 1
Single engine airplanes: 1
    

Instrument Procedures

There are no published instrument procedures at MY93.

Some nearby airports with instrument procedures:

16D - Perham Municipal Airport (4 nm E)
KDTL - Detroit Lakes Airport-Wething Field (15 nm NW)
KADC - Wadena Municipal Airport (23 nm SE)
KFFM - Fergus Falls Municipal Airport-Einar Mickelson Field (27 nm SW)
04Y - Hawley Municipal Airport (31 nm NW)
 
Loc | Ops | Rwys | IFR | FBO | Links
Com | Nav | Svcs | Stats | Notes


 
Area around MY93 (North Air Seaplane Base)
 
Road maps at: MapQuest Bing Google
 
Aerial photo
No photo
 
Sectional chart

 
Airport distance calculator
Flying to North Air Seaplane Base? Find the distance to fly.

From to MY93

Sunrise and sunset
Times for 24-Jul-2017
 Local
(UTC-5)
 Zulu
(UTC)
Morning civil twilight05:1910:19
Sunrise05:5510:55
Sunset21:0402:04
Evening civil twilight21:4002:40

Current date and time
Zulu (UTC)  24-Jul-2017 21:03:05
Local (UTC-5)  24-Jul-2017 16:03:05
 
METAR
KDTL 
14nm NW 
242053Z AUTO 15012G18KT 10SM CLR 24/16 A2998 RMK AO2
KADC 
22nm SE 
242052Z AUTO 15010G14KT 10SM CLR 24/16 A3000 RMK AO2
KFFM 
28nm SW 
242054Z AUTO 16012KT 10SM CLR 24/17 A2995 RMK AO2
TAF
KAXN 
46nm S 
241737Z 2418/2518 15010KT P6SM FEW025 FM241900 16014G18KT P6SM SCT250 FM250400 16012KT P6SM VCTS BKN050CB OVC100 FM250900 16014KT P6SM SCT050 OVC100 FM251500 18015G22KT P6SM SCT020 OVC050
KFAR 
50nm NW 
241720Z 2418/2518 16014G22KT P6SM SCT040 BKN150 FM250400 15010KT P6SM OVC120 FM251500 20007KT P6SM SCT035 FM251700 25005KT P6SM BKN090
NOTAMs
Click for the latest NOTAMs
NOTAMs are issued by the DoD/FAA and will open in a separate window not controlled by AirNav.

 

 
 

Would you like to see your business listed on this page?

 If your business provides an interesting product or service to pilots, flight crews, aircraft, or users of the North Air Seaplane Base, you should consider listing it here.  To start the listing process, click on the button below
 
Add a business
 

Other Pages about North Air Seaplane Base

Update a link
 
Copyright © AirNav, LLC. All rights reserved. Privacy Policy  Contact